sensor_id;sensor_type;location;lat;lon;timestamp;pressure;altitude;pressure_sealevel;temperature;humidity
46129;BME280;31860;45.186;5.790;2023-05-24T00:01:15;99055.66;;;21.22;100.00
46129;BME280;31860;45.186;5.790;2023-05-24T00:03:41;99049.47;;;21.22;100.00
46129;BME280;31860;45.186;5.790;2023-05-24T00:06:06;99060.19;;;21.20;100.00
46129;BME280;31860;45.186;5.790;2023-05-24T00:08:32;99056.66;;;21.20;100.00
46129;BME280;31860;45.186;5.790;2023-05-24T00:10:58;99071.75;;;21.19;100.00
46129;BME280;31860;45.186;5.790;2023-05-24T00:13:24;99068.28;;;21.17;100.00
46129;BME280;31860;45.186;5.790;2023-05-24T00:15:49;99064.78;;;21.17;100.00
46129;BME280;31860;45.186;5.790;2023-05-24T00:18:15;99065.69;;;21.16;100.00
46129;BME280;31860;45.186;5.790;2023-05-24T00:20:42;99069.22;;;21.16;100.00
46129;BME280;31860;45.186;5.790;2023-05-24T00:23:08;99072.75;;;21.17;100.00
46129;BME280;31860;45.186;5.790;2023-05-24T00:25:33;99060.38;;;21.16;100.00
46129;BME280;31860;45.186;5.790;2023-05-24T00:27:59;99066.56;;;21.16;100.00
46129;BME280;31860;45.186;5.790;2023-05-24T00:30:24;99062.13;;;21.17;100.00
46129;BME280;31860;45.186;5.790;2023-05-24T00:32:50;99068.34;;;21.16;100.00
46129;BME280;31860;45.186;5.790;2023-05-24T00:35:15;99064.84;;;21.15;100.00
46129;BME280;31860;45.186;5.790;2023-05-24T00:37:41;99066.63;;;21.15;100.00
46129;BME280;31860;45.186;5.790;2023-05-24T00:40:12;99063.91;;;21.16;100.00
46129;BME280;31860;45.186;5.790;2023-05-24T00:42:38;99062.97;;;21.17;100.00
46129;BME280;31860;45.186;5.790;2023-05-24T00:45:03;99060.25;;;21.19;100.00
46129;BME280;31860;45.186;5.790;2023-05-24T00:47:29;99058.47;;;21.19;100.00
46129;BME280;31860;45.186;5.790;2023-05-24T00:49:55;99050.53;;;21.18;100.00
46129;BME280;31860;45.186;5.790;2023-05-24T00:52:21;99045.22;;;21.18;100.00
46129;BME280;31860;45.186;5.790;2023-05-24T00:54:47;99049.69;;;21.17;100.00
46129;BME280;31860;45.186;5.790;2023-05-24T00:57:12;99042.56;;;21.18;100.00
46129;BME280;31860;45.186;5.790;2023-05-24T00:59:39;99049.75;;;21.16;100.00
46129;BME280;31860;45.186;5.790;2023-05-24T01:02:04;99038.28;;;21.15;100.00
46129;BME280;31860;45.186;5.790;2023-05-24T01:04:30;99045.44;;;21.13;100.00
46129;BME280;31860;45.186;5.790;2023-05-24T01:09:49;99048.19;;;21.12;100.00
46129;BME280;31860;45.186;5.790;2023-05-24T01:12:51;99043.84;;;21.09;100.00
46129;BME280;31860;45.186;5.790;2023-05-24T01:15:40;99050.97;;;21.09;100.00
46129;BME280;31860;45.186;5.790;2023-05-24T01:18:13;99047.44;;;21.08;100.00
46129;BME280;31860;45.186;5.790;2023-05-24T01:20:40;99042.19;;;21.07;100.00
46129;BME280;31860;45.186;5.790;2023-05-24T01:28:19;99047.44;;;21.08;100.00
46129;BME280;31860;45.186;5.790;2023-05-24T01:30:45;99049.25;;;21.08;100.00
46129;BME280;31860;45.186;5.790;2023-05-24T01:33:11;99043.00;;;21.09;100.00
46129;BME280;31860;45.186;5.790;2023-05-24T01:35:37;99043.94;;;21.08;100.00
46129;BME280;31860;45.186;5.790;2023-05-24T01:38:07;99045.72;;;21.07;100.00
46129;BME280;31860;45.186;5.790;2023-05-24T01:40:32;99054.59;;;21.06;100.00
46129;BME280;31860;45.186;5.790;2023-05-24T01:43:03;99060.78;;;21.07;100.00
46129;BME280;31860;45.186;5.790;2023-05-24T01:45:43;99065.31;;;21.05;100.00
46129;BME280;31860;45.186;5.790;2023-05-24T01:48:20;99062.66;;;21.05;100.00
46129;BME280;31860;45.186;5.790;2023-05-24T01:50:53;99052.03;;;21.05;100.00
46129;BME280;31860;45.186;5.790;2023-05-24T01:53:22;99051.19;;;21.04;100.00
46129;BME280;31860;45.186;5.790;2023-05-24T01:55:54;99047.56;;;21.05;100.00
46129;BME280;31860;45.186;5.790;2023-05-24T01:58:22;99056.50;;;21.04;100.00
46129;BME280;31860;45.186;5.790;2023-05-24T02:00:47;99052.03;;;21.05;100.00
46129;BME280;31860;45.186;5.790;2023-05-24T02:03:14;99040.56;;;21.04;100.00
46129;BME280;31860;45.186;5.790;2023-05-24T02:05:40;99038.81;;;21.03;100.00
46129;BME280;31860;45.186;5.790;2023-05-24T02:08:05;99037.16;;;21.01;100.00
46129;BME280;31860;45.186;5.790;2023-05-24T02:10:31;99046.03;;;21.00;100.00
46129;BME280;31860;45.186;5.790;2023-05-24T02:12:56;99031.88;;;20.99;100.00
46129;BME280;31860;45.186;5.790;2023-05-24T02:15:23;99036.31;;;20.99;100.00
46129;BME280;31860;45.186;5.790;2023-05-24T02:17:50;99027.44;;;21.00;100.00
46129;BME280;31860;45.186;5.790;2023-05-24T02:20:19;99021.22;;;21.01;100.00
46129;BME280;31860;45.186;5.790;2023-05-24T02:22:47;99023.03;;;20.99;100.00
46129;BME280;31860;45.186;5.790;2023-05-24T02:25:12;99024.84;;;20.98;100.00
46129;BME280;31860;45.186;5.790;2023-05-24T02:27:37;99023.09;;;20.97;100.00
46129;BME280;31860;45.186;5.790;2023-05-24T02:30:04;99014.22;;;20.98;100.00
46129;BME280;31860;45.186;5.790;2023-05-24T02:32:30;99027.50;;;20.98;100.00
46129;BME280;31860;45.186;5.790;2023-05-24T02:34:55;99020.47;;;20.97;100.00
46129;BME280;31860;45.186;5.790;2023-05-24T02:37:23;99014.22;;;20.98;100.00
46129;BME280;31860;45.186;5.790;2023-05-24T02:39:49;99009.75;;;20.99;100.00
46129;BME280;31860;45.186;5.790;2023-05-24T02:42:14;99016.00;;;20.98;100.00
46129;BME280;31860;45.186;5.790;2023-05-24T02:44:39;99009.00;;;20.97;100.00
46129;BME280;31860;45.186;5.790;2023-05-24T02:47:07;98997.41;;;20.98;100.00
46129;BME280;31860;45.186;5.790;2023-05-24T02:49:32;98999.22;;;20.97;100.00
46129;BME280;31860;45.186;5.790;2023-05-24T02:51:58;98999.13;;;20.99;100.00
46129;BME280;31860;45.186;5.790;2023-05-24T02:54:23;98994.84;;;20.96;100.00
46129;BME280;31860;45.186;5.790;2023-05-24T02:56:48;98991.25;;;20.97;100.00
46129;BME280;31860;45.186;5.790;2023-05-24T02:59:14;98997.50;;;20.96;100.00
46129;BME280;31860;45.186;5.790;2023-05-24T03:01:40;98986.00;;;20.96;100.00
46129;BME280;31860;45.186;5.790;2023-05-24T03:04:05;98988.66;;;20.96;100.00
46129;BME280;31860;45.186;5.790;2023-05-24T03:06:30;98985.19;;;20.94;100.00
46129;BME280;31860;45.186;5.790;2023-05-24T03:08:56;98983.50;;;20.93;100.00
46129;BME280;31860;45.186;5.790;2023-05-24T03:11:22;98980.03;;;20.91;100.00
46129;BME280;31860;45.186;5.790;2023-05-24T03:13:48;98985.34;;;20.91;100.00
46129;BME280;31860;45.186;5.790;2023-05-24T03:16:13;98980.97;;;20.90;100.00
46129;BME280;31860;45.186;5.790;2023-05-24T03:18:39;98981.81;;;20.90;100.00
46129;BME280;31860;45.186;5.790;2023-05-24T03:21:05;98972.16;;;20.89;100.00
46129;BME280;31860;45.186;5.790;2023-05-24T03:23:31;98977.47;;;20.89;100.00
46129;BME280;31860;45.186;5.790;2023-05-24T03:25:57;98979.16;;;20.90;100.00
46129;BME280;31860;45.186;5.790;2023-05-24T03:28:22;98973.88;;;20.90;100.00
46129;BME280;31860;45.186;5.790;2023-05-24T03:30:47;98980.03;;;20.91;100.00
46129;BME280;31860;45.186;5.790;2023-05-24T03:33:13;98979.97;;;20.92;100.00
46129;BME280;31860;45.186;5.790;2023-05-24T03:35:38;98983.50;;;20.93;100.00
46129;BME280;31860;45.186;5.790;2023-05-24T03:38:04;98983.50;;;20.93;100.00
46129;BME280;31860;45.186;5.790;2023-05-24T03:40:29;98986.06;;;20.94;100.00
46129;BME280;31860;45.186;5.790;2023-05-24T03:42:57;98986.00;;;20.96;100.00
46129;BME280;31860;45.186;5.790;2023-05-24T03:45:23;98986.78;;;20.98;100.00
46129;BME280;31860;45.186;5.790;2023-05-24T03:47:48;98985.00;;;20.98;100.00
46129;BME280;31860;45.186;5.790;2023-05-24T03:50:13;98994.75;;;20.98;100.00
46129;BME280;31860;45.186;5.790;2023-05-24T03:52:40;98992.91;;;21.00;100.00
46129;BME280;31860;45.186;5.790;2023-05-24T03:55:06;98999.13;;;21.00;100.00
46129;BME280;31860;45.186;5.790;2023-05-24T03:57:31;98991.16;;;20.99;100.00
46129;BME280;31860;45.186;5.790;2023-05-24T03:59:57;98997.31;;;21.01;100.00
46129;BME280;31860;45.186;5.790;2023-05-24T04:02:24;98997.31;;;21.01;100.00
46129;BME280;31860;45.186;5.790;2023-05-24T04:04:49;98999.91;;;21.02;100.00
46129;BME280;31860;45.186;5.790;2023-05-24T04:07:15;99012.31;;;21.02;100.00
46129;BME280;31860;45.186;5.790;2023-05-24T04:09:41;99001.69;;;21.02;100.00
46129;BME280;31860;45.186;5.790;2023-05-24T04:12:06;99007.00;;;21.02;100.00
46129;BME280;31860;45.186;5.790;2023-05-24T04:14:32;99007.00;;;21.02;100.00
46129;BME280;31860;45.186;5.790;2023-05-24T04:16:57;99006.16;;;21.01;100.00
46129;BME280;31860;45.186;5.790;2023-05-24T04:19:23;99012.41;;;21.00;100.00
46129;BME280;31860;45.186;5.790;2023-05-24T04:21:48;99012.41;;;20.99;100.00
46129;BME280;31860;45.186;5.790;2023-05-24T04:24:14;99015.06;;;21.00;100.00
46129;BME280;31860;45.186;5.790;2023-05-24T04:26:39;99018.59;;;20.99;100.00
46129;BME280;31860;45.186;5.790;2023-05-24T04:29:04;99023.97;;;20.98;100.00
46129;BME280;31860;45.186;5.790;2023-05-24T04:31:31;99018.75;;;20.96;100.00
46129;BME280;31860;45.186;5.790;2023-05-24T04:33:58;99024.97;;;20.95;100.00
46129;BME280;31860;45.186;5.790;2023-05-24T04:36:24;99018.81;;;20.95;100.00
46129;BME280;31860;45.186;5.790;2023-05-24T04:38:50;99026.81;;;20.93;100.00
46129;BME280;31860;45.186;5.790;2023-05-24T04:41:18;99024.25;;;20.92;100.00
46129;BME280;31860;45.186;5.790;2023-05-24T04:43:44;99026.03;;;20.91;100.00
46129;BME280;31860;45.186;5.790;2023-05-24T04:46:09;99020.78;;;20.90;100.00
46129;BME280;31860;45.186;5.790;2023-05-24T04:48:35;99027.97;;;20.88;100.00
46129;BME280;31860;45.186;5.790;2023-05-24T04:51:00;99027.94;;;20.89;100.00
46129;BME280;31860;45.186;5.790;2023-05-24T04:53:26;99032.38;;;20.89;100.00
46129;BME280;31860;45.186;5.790;2023-05-24T04:55:51;99030.69;;;20.86;100.00
46129;BME280;31860;45.186;5.790;2023-05-24T04:58:17;99022.72;;;20.86;100.00
46129;BME280;31860;45.186;5.790;2023-05-24T05:00:43;99030.78;;;20.85;100.00
46129;BME280;31860;45.186;5.790;2023-05-24T05:03:09;99028.19;;;20.83;100.00
46129;BME280;31860;45.186;5.790;2023-05-24T05:05:34;99034.41;;;20.82;100.00
46129;BME280;31860;45.186;5.790;2023-05-24T05:08:00;99032.78;;;20.80;100.00
46129;BME280;31860;45.186;5.790;2023-05-24T05:10:26;99030.03;;;20.81;100.00
46129;BME280;31860;45.186;5.790;2023-05-24T05:12:51;99030.91;;;20.82;100.00
46129;BME280;31860;45.186;5.790;2023-05-24T05:15:17;99036.22;;;20.82;100.00
46129;BME280;31860;45.186;5.790;2023-05-24T05:17:42;99029.16;;;20.81;100.00
46129;BME280;31860;45.186;5.790;2023-05-24T05:20:08;99038.81;;;20.83;100.00
46129;BME280;31860;45.186;5.790;2023-05-24T05:22:33;99035.34;;;20.81;100.00
46129;BME280;31860;45.186;5.790;2023-05-24T05:24:59;99035.34;;;20.81;100.00
46129;BME280;31860;45.186;5.790;2023-05-24T05:27:25;99047.63;;;20.84;100.00
46129;BME280;31860;45.186;5.790;2023-05-24T05:29:51;99037.06;;;20.82;100.00
46129;BME280;31860;45.186;5.790;2023-05-24T05:32:16;99031.75;;;20.82;100.00
46129;BME280;31860;45.186;5.790;2023-05-24T05:34:41;99035.28;;;20.83;100.00
46129;BME280;31860;45.186;5.790;2023-05-24T05:37:07;99032.63;;;20.83;100.00
46129;BME280;31860;45.186;5.790;2023-05-24T05:39:32;99033.44;;;20.85;100.00
46129;BME280;31860;45.186;5.790;2023-05-24T05:41:58;99029.03;;;20.84;100.00
46129;BME280;31860;45.186;5.790;2023-05-24T05:44:23;99040.53;;;20.84;100.00
46129;BME280;31860;45.186;5.790;2023-05-24T05:46:49;99044.03;;;20.85;100.00
46129;BME280;31860;45.186;5.790;2023-05-24T05:49:18;99037.88;;;20.84;100.00
46129;BME280;31860;45.186;5.790;2023-05-24T05:51:44;99043.16;;;20.84;100.00
46129;BME280;31860;45.186;5.790;2023-05-24T05:54:13;99039.66;;;20.84;100.00
46129;BME280;31860;45.186;5.790;2023-05-24T05:56:40;99036.16;;;20.83;100.00
46129;BME280;31860;45.186;5.790;2023-05-24T05:59:13;99038.00;;;20.81;100.00
46129;BME280;31860;45.186;5.790;2023-05-24T06:01:43;99039.88;;;20.79;100.00
46129;BME280;31860;45.186;5.790;2023-05-24T06:04:11;99035.44;;;20.80;100.00
46129;BME280;31860;45.186;5.790;2023-05-24T06:06:36;99032.81;;;20.78;100.00
46129;BME280;31860;45.186;5.790;2023-05-24T06:09:02;99031.97;;;20.77;100.00
46129;BME280;31860;45.186;5.790;2023-05-24T06:11:28;99031.09;;;20.77;100.00
46129;BME280;31860;45.186;5.790;2023-05-24T06:13:53;99040.94;;;20.75;100.00
46129;BME280;31860;45.186;5.790;2023-05-24T06:16:19;99034.63;;;20.77;100.00
46129;BME280;31860;45.186;5.790;2023-05-24T06:18:45;99032.81;;;20.78;100.00
46129;BME280;31860;45.186;5.790;2023-05-24T06:21:11;99028.38;;;20.78;100.00
46129;BME280;31860;45.186;5.790;2023-05-24T06:23:37;99034.56;;;20.79;100.00
46129;BME280;31860;45.186;5.790;2023-05-24T06:26:03;99029.31;;;20.77;100.00
46129;BME280;31860;45.186;5.790;2023-05-24T06:28:28;99027.50;;;20.78;100.00
46129;BME280;31860;45.186;5.790;2023-05-24T06:30:54;99036.25;;;20.80;100.00
46129;BME280;31860;45.186;5.790;2023-05-24T06:33:20;99036.25;;;20.80;100.00
46129;BME280;31860;45.186;5.790;2023-05-24T06:35:46;99035.34;;;20.81;100.00
46129;BME280;31860;45.186;5.790;2023-05-24T06:38:11;99035.34;;;20.81;100.00
46129;BME280;31860;45.186;5.790;2023-05-24T06:40:37;99031.81;;;20.81;100.00
46129;BME280;31860;45.186;5.790;2023-05-24T06:43:03;99037.94;;;20.83;100.00
46129;BME280;31860;45.186;5.790;2023-05-24T06:45:28;99046.78;;;20.83;100.00
46129;BME280;31860;45.186;5.790;2023-05-24T06:47:54;99044.19;;;20.82;100.00
46129;BME280;31860;45.186;5.790;2023-05-24T06:50:19;99042.38;;;20.82;100.00
46129;BME280;31860;45.186;5.790;2023-05-24T06:52:44;99045.09;;;20.81;100.00
46129;BME280;31860;45.186;5.790;2023-05-24T06:55:10;99050.41;;;20.81;100.00
46129;BME280;31860;45.186;5.790;2023-05-24T06:57:35;99044.31;;;20.78;100.00
46129;BME280;31860;45.186;5.790;2023-05-24T07:00:01;99047.84;;;20.79;100.00
46129;BME280;31860;45.186;5.790;2023-05-24T07:02:26;99041.66;;;20.78;100.00
46129;BME280;31860;45.186;5.790;2023-05-24T07:04:52;99047.03;;;20.77;100.00
46129;BME280;31860;45.186;5.790;2023-05-24T07:07:19;99047.03;;;20.77;100.00
46129;BME280;31860;45.186;5.790;2023-05-24T07:09:44;99041.72;;;20.77;100.00
46129;BME280;31860;45.186;5.790;2023-05-24T07:12:11;99043.50;;;20.76;100.00
46129;BME280;31860;45.186;5.790;2023-05-24T07:14:36;99050.69;;;20.74;100.00
46129;BME280;31860;45.186;5.790;2023-05-24T07:17:02;99048.81;;;20.76;100.00
46129;BME280;31860;45.186;5.790;2023-05-24T07:19:27;99047.19;;;20.74;100.00
46129;BME280;31860;45.186;5.790;2023-05-24T07:21:56;99050.75;;;20.73;100.00
46129;BME280;31860;45.186;5.790;2023-05-24T07:24:21;99049.88;;;20.72;100.00
46129;BME280;31860;45.186;5.790;2023-05-24T07:26:48;99059.59;;;20.73;100.00
46129;BME280;31860;45.186;5.790;2023-05-24T07:29:14;99054.34;;;20.72;100.00
46129;BME280;31860;45.186;5.790;2023-05-24T07:31:40;99052.50;;;20.74;100.00
46129;BME280;31860;45.186;5.790;2023-05-24T07:34:06;99066.53;;;20.76;100.00
46129;BME280;31860;45.186;5.790;2023-05-24T07:36:32;99063.03;;;20.75;100.00
46129;BME280;31860;45.186;5.790;2023-05-24T07:38:57;99063.94;;;20.74;100.00
46129;BME280;31860;45.186;5.790;2023-05-24T07:41:25;99063.94;;;20.74;100.00
46129;BME280;31860;45.186;5.790;2023-05-24T07:43:51;99073.59;;;20.77;100.00
46129;BME280;31860;45.186;5.790;2023-05-24T07:46:16;99071.06;;;20.74;100.00
46129;BME280;31860;45.186;5.790;2023-05-24T07:48:41;99073.59;;;20.77;100.00
46129;BME280;31860;45.186;5.790;2023-05-24T07:51:07;99072.78;;;20.75;100.00
46129;BME280;31860;45.186;5.790;2023-05-24T07:53:32;99082.47;;;20.76;100.00
46129;BME280;31860;45.186;5.790;2023-05-24T07:55:58;99080.75;;;20.75;100.00
46129;BME280;31860;45.186;5.790;2023-05-24T07:58:24;99086.00;;;20.76;100.00
46129;BME280;31860;45.186;5.790;2023-05-24T08:00:50;99079.78;;;20.77;100.00
46129;BME280;31860;45.186;5.790;2023-05-24T08:03:16;99079.81;;;20.76;100.00
46129;BME280;31860;45.186;5.790;2023-05-24T08:05:42;99080.59;;;20.78;100.00
46129;BME280;31860;45.186;5.790;2023-05-24T08:08:07;99077.03;;;20.79;100.00
46129;BME280;31860;45.186;5.790;2023-05-24T08:10:33;99080.56;;;20.80;100.00
46129;BME280;31860;45.186;5.790;2023-05-24T08:12:59;99079.63;;;20.81;100.00
46129;BME280;31860;45.186;5.790;2023-05-24T08:15:24;99076.06;;;20.82;100.00
46129;BME280;31860;45.186;5.790;2023-05-24T08:17:50;99071.50;;;20.84;100.00
46129;BME280;31860;45.186;5.790;2023-05-24T08:20:15;99082.09;;;20.85;100.00
46129;BME280;31860;45.186;5.790;2023-05-24T08:22:42;99080.25;;;20.87;100.00
46129;BME280;31860;45.186;5.790;2023-05-24T08:25:08;99073.91;;;20.90;100.00
46129;BME280;31860;45.186;5.790;2023-05-24T08:27:33;99082.69;;;20.92;100.00
46129;BME280;31860;45.186;5.790;2023-05-24T08:29:59;99076.38;;;20.94;100.00
46129;BME280;31860;45.186;5.790;2023-05-24T08:32:25;99086.06;;;20.95;100.00
46129;BME280;31860;45.186;5.790;2023-05-24T08:34:50;99082.41;;;20.98;100.00
46129;BME280;31860;45.186;5.790;2023-05-24T08:37:16;99085.06;;;20.98;100.00
46129;BME280;31860;45.186;5.790;2023-05-24T08:39:45;99085.88;;;21.00;100.00
46129;BME280;31860;45.186;5.790;2023-05-24T08:42:10;99084.13;;;21.00;100.00
46129;BME280;31860;45.186;5.790;2023-05-24T08:44:52;99084.13;;;21.00;100.00
46129;BME280;31860;45.186;5.790;2023-05-24T08:47:22;99082.34;;;20.99;100.00
46129;BME280;31860;45.186;5.790;2023-05-24T08:49:50;99086.84;;;20.97;100.00
46129;BME280;31860;45.186;5.790;2023-05-24T08:52:16;99083.28;;;20.98;100.00
46129;BME280;31860;45.186;5.790;2023-05-24T08:54:42;99090.38;;;20.98;100.00
46129;BME280;31860;45.186;5.790;2023-05-24T08:57:09;99084.19;;;20.97;100.00
46129;BME280;31860;45.186;5.790;2023-05-24T08:59:37;99085.00;;;20.99;100.00
46129;BME280;31860;45.186;5.790;2023-05-24T09:02:03;99091.19;;;21.00;100.00
46129;BME280;31860;45.186;5.790;2023-05-24T09:04:29;99089.44;;;21.00;100.00
46129;BME280;31860;45.186;5.790;2023-05-24T09:06:55;99087.63;;;21.01;100.00
46129;BME280;31860;45.186;5.790;2023-05-24T09:09:26;99088.41;;;21.03;100.00
46129;BME280;31860;45.186;5.790;2023-05-24T09:11:52;99094.53;;;21.05;100.00
46129;BME280;31860;45.186;5.790;2023-05-24T09:14:20;99089.13;;;21.06;100.00
46129;BME280;31860;45.186;5.790;2023-05-24T09:16:46;99090.00;;;21.07;100.00
46129;BME280;31860;45.186;5.790;2023-05-24T09:19:11;99090.00;;;21.07;100.00
46129;BME280;31860;45.186;5.790;2023-05-24T09:21:38;99098.69;;;21.10;100.00
46129;BME280;31860;45.186;5.790;2023-05-24T09:24:06;99099.44;;;21.14;100.00
46129;BME280;31860;45.186;5.790;2023-05-24T09:26:35;99094.88;;;21.17;100.00
46129;BME280;31860;45.186;5.790;2023-05-24T09:29:00;99095.59;;;21.21;100.00
46129;BME280;31860;45.186;5.790;2023-05-24T09:31:37;99096.38;;;21.23;100.00
46129;BME280;31860;45.186;5.790;2023-05-24T09:34:08;99095.31;;;21.27;100.00
46129;BME280;31860;45.186;5.790;2023-05-24T09:36:35;99089.78;;;21.31;100.00
46129;BME280;31860;45.186;5.790;2023-05-24T09:39:08;99090.44;;;21.36;100.00
46129;BME280;31860;45.186;5.790;2023-05-24T09:41:37;99092.91;;;21.41;100.00
46129;BME280;31860;45.186;5.790;2023-05-24T09:44:04;99089.25;;;21.43;100.00
46129;BME280;31860;45.186;5.790;2023-05-24T09:46:38;99094.47;;;21.45;100.00
46129;BME280;31860;45.186;5.790;2023-05-24T09:49:04;99095.34;;;21.45;100.00
46129;BME280;31860;45.186;5.790;2023-05-24T09:51:35;99084.75;;;21.44;100.00
46129;BME280;31860;45.186;5.790;2023-05-24T09:54:01;99091.81;;;21.45;100.00
46129;BME280;31860;45.186;5.790;2023-05-24T09:56:28;99097.06;;;21.46;100.00
46129;BME280;31860;45.186;5.790;2023-05-24T09:58:53;99096.94;;;21.49;100.00
46129;BME280;31860;45.186;5.790;2023-05-24T10:01:22;99096.00;;;21.50;100.00
46129;BME280;31860;45.186;5.790;2023-05-24T10:03:56;99092.34;;;21.53;100.00
46129;BME280;31860;45.186;5.790;2023-05-24T10:06:22;99091.31;;;21.55;100.00
46129;BME280;31860;45.186;5.790;2023-05-24T10:08:49;99087.75;;;21.56;100.00
46129;BME280;31860;45.186;5.790;2023-05-24T10:11:14;99080.56;;;21.58;100.00
46129;BME280;31860;45.186;5.790;2023-05-24T10:13:40;99084.03;;;21.60;100.00
46129;BME280;31860;45.186;5.790;2023-05-24T10:16:06;99089.25;;;21.62;100.00
46129;BME280;31860;45.186;5.790;2023-05-24T10:18:31;99084.66;;;21.65;100.00
46129;BME280;31860;45.186;5.790;2023-05-24T10:20:57;99081.91;;;21.67;100.00
46129;BME280;31860;45.186;5.790;2023-05-24T10:23:23;99073.81;;;21.70;100.00
46129;BME280;31860;45.186;5.790;2023-05-24T10:25:56;99079.84;;;21.74;100.00
46129;BME280;31860;45.186;5.790;2023-05-24T10:28:25;99081.47;;;21.76;100.00
46129;BME280;31860;45.186;5.790;2023-05-24T10:31:04;99079.59;;;21.80;100.00
46129;BME280;31860;45.186;5.790;2023-05-24T10:33:33;99079.44;;;21.83;100.00
46129;BME280;31860;45.186;5.790;2023-05-24T10:36:02;99087.22;;;21.87;100.00
46129;BME280;31860;45.186;5.790;2023-05-24T10:38:28;99080.94;;;21.88;100.00
46129;BME280;31860;45.186;5.790;2023-05-24T10:40:53;99085.28;;;21.91;100.00
46129;BME280;31860;45.186;5.790;2023-05-24T10:43:20;99082.47;;;21.94;100.00
46129;BME280;31860;45.186;5.790;2023-05-24T10:45:49;99083.25;;;21.96;100.00
46129;BME280;31860;45.186;5.790;2023-05-24T10:50:41;99075.84;;;22.02;100.00
46129;BME280;31860;45.186;5.790;2023-05-24T10:53:17;99065.03;;;22.05;100.00
46129;BME280;31860;45.186;5.790;2023-05-24T10:56:02;99065.75;;;22.09;100.00
46129;BME280;31860;45.186;5.790;2023-05-24T11:00:59;99065.53;;;22.13;100.00
46129;BME280;31860;45.186;5.790;2023-05-24T11:03:31;99069.00;;;22.15;100.00
46129;BME280;31860;45.186;5.790;2023-05-24T11:05:57;99061.00;;;22.15;100.00
46129;BME280;31860;45.186;5.790;2023-05-24T11:08:34;99067.16;;;22.16;100.00
46129;BME280;31860;45.186;5.790;2023-05-24T11:11:10;99064.47;;;22.17;100.00
46129;BME280;31860;45.186;5.790;2023-05-24T11:13:37;99058.19;;;22.18;100.00
46129;BME280;31860;45.186;5.790;2023-05-24T11:16:03;99053.66;;;22.20;100.00
46129;BME280;31860;45.186;5.790;2023-05-24T11:18:29;99060.63;;;22.23;100.00
46129;BME280;31860;45.186;5.790;2023-05-24T11:20:55;99056.03;;;22.26;100.00
46129;BME280;31860;45.186;5.790;2023-05-24T11:23:21;99056.81;;;22.28;100.00
46129;BME280;31860;45.186;5.790;2023-05-24T11:25:47;99051.31;;;22.31;100.00
46129;BME280;31860;45.186;5.790;2023-05-24T11:28:13;99049.44;;;22.33;100.00
46129;BME280;31860;45.186;5.790;2023-05-24T11:30:44;99046.69;;;22.35;100.00
46129;BME280;31860;45.186;5.790;2023-05-24T11:33:17;99049.44;;;22.33;100.00
46129;BME280;31860;45.186;5.790;2023-05-24T11:35:43;99036.06;;;22.35;100.00
46129;BME280;31860;45.186;5.790;2023-05-24T11:38:15;99033.25;;;22.38;100.00
46129;BME280;31860;45.186;5.790;2023-05-24T11:40:45;99033.97;;;22.41;100.00
46129;BME280;31860;45.186;5.790;2023-05-24T11:43:17;99031.13;;;22.44;100.00
46129;BME280;31860;45.186;5.790;2023-05-24T11:45:45;99025.59;;;22.49;100.00
46129;BME280;31860;45.186;5.790;2023-05-24T11:48:12;99020.09;;;22.52;100.00
46129;BME280;31860;45.186;5.790;2023-05-24T11:50:42;99012.75;;;22.57;100.00
46129;BME280;31860;45.186;5.790;2023-05-24T11:53:11;99012.63;;;22.60;100.00
46129;BME280;31860;45.186;5.790;2023-05-24T11:55:38;99015.97;;;22.64;100.00
46129;BME280;31860;45.186;5.790;2023-05-24T11:58:40;99008.69;;;22.67;100.00
46129;BME280;31860;45.186;5.790;2023-05-24T12:01:29;99003.91;;;22.74;100.00
46129;BME280;31860;45.186;5.790;2023-05-24T12:03:54;99005.47;;;22.78;100.00
46129;BME280;31860;45.186;5.790;2023-05-24T12:06:20;99002.56;;;22.82;100.00
46129;BME280;31860;45.186;5.790;2023-05-24T12:08:46;98996.22;;;22.85;100.00
46129;BME280;31860;45.186;5.790;2023-05-24T12:11:12;98983.59;;;22.88;100.00
46129;BME280;31860;45.186;5.790;2023-05-24T12:13:39;98975.41;;;22.91;100.00
46129;BME280;31860;45.186;5.790;2023-05-24T12:16:04;98979.81;;;22.92;100.00
46129;BME280;31860;45.186;5.790;2023-05-24T12:18:30;98974.31;;;22.95;100.00
46129;BME280;31860;45.186;5.790;2023-05-24T12:20:56;98979.41;;;23.00;100.00
46129;BME280;31860;45.186;5.790;2023-05-24T12:23:26;98976.56;;;23.03;100.00
46129;BME280;31860;45.186;5.790;2023-05-24T12:25:57;98978.31;;;23.04;100.00
46129;BME280;31860;45.186;5.790;2023-05-24T12:28:26;98976.44;;;23.06;100.00
46129;BME280;31860;45.186;5.790;2023-05-24T12:30:52;98974.53;;;23.08;100.00
46129;BME280;31860;45.186;5.790;2023-05-24T12:33:18;98967.47;;;23.07;100.00
46129;BME280;31860;45.186;5.790;2023-05-24T12:35:45;98969.22;;;23.08;100.00
46129;BME280;31860;45.186;5.790;2023-05-24T12:38:13;98965.59;;;23.09;100.00
46129;BME280;31860;45.186;5.790;2023-05-24T12:40:42;98964.63;;;23.10;100.00
46129;BME280;31860;45.186;5.790;2023-05-24T12:43:08;98963.72;;;23.11;100.00
46129;BME280;31860;45.186;5.790;2023-05-24T12:45:35;98962.84;;;23.10;100.00
46129;BME280;31860;45.186;5.790;2023-05-24T12:48:01;98965.41;;;23.12;100.00
46129;BME280;31860;45.186;5.790;2023-05-24T12:50:29;98956.50;;;23.13;100.00
46129;BME280;31860;45.186;5.790;2023-05-24T12:52:55;98952.09;;;23.12;100.00
46129;BME280;31860;45.186;5.790;2023-05-24T12:55:24;98950.28;;;23.12;100.00
46129;BME280;31860;45.186;5.790;2023-05-24T12:57:51;98946.69;;;23.13;100.00
46129;BME280;31860;45.186;5.790;2023-05-24T13:00:25;98946.75;;;23.12;100.00
46129;BME280;31860;45.186;5.790;2023-05-24T13:02:55;98928.97;;;23.12;100.00